sensor_id;sensor_type;location;lat;lon;timestamp;temperature;humidity
52439;DHT22;38359;53.150;6.504;2023-04-15T00:07:04;6.70;99.90
52439;DHT22;38359;53.150;6.504;2023-04-15T00:17:30;7.40;99.90
52439;DHT22;38359;53.150;6.504;2023-04-15T00:27:56;7.20;99.90
52439;DHT22;38359;53.150;6.504;2023-04-15T00:38:22;7.10;99.90
52439;DHT22;38359;53.150;6.504;2023-04-15T00:48:48;7.00;99.90
52439;DHT22;38359;53.150;6.504;2023-04-15T00:59:15;6.90;99.90
52439;DHT22;38359;53.150;6.504;2023-04-15T01:09:42;6.80;99.90
52439;DHT22;38359;53.150;6.504;2023-04-15T01:20:08;6.70;99.90
52439;DHT22;38359;53.150;6.504;2023-04-15T01:30:36;6.50;99.90
52439;DHT22;38359;53.150;6.504;2023-04-15T01:41:03;6.60;99.90
52439;DHT22;38359;53.150;6.504;2023-04-15T01:51:31;6.60;99.90
52439;DHT22;38359;53.150;6.504;2023-04-15T02:01:57;6.40;99.90
52439;DHT22;38359;53.150;6.504;2023-04-15T02:12:23;6.40;99.90
52439;DHT22;38359;53.150;6.504;2023-04-15T02:22:48;6.20;99.90
52439;DHT22;38359;53.150;6.504;2023-04-15T02:33:14;6.10;99.90
52439;DHT22;38359;53.150;6.504;2023-04-15T02:43:40;6.10;99.90
52439;DHT22;38359;53.150;6.504;2023-04-15T02:54:06;6.10;99.90
52439;DHT22;38359;53.150;6.504;2023-04-15T03:04:33;5.90;99.90
52439;DHT22;38359;53.150;6.504;2023-04-15T03:14:59;5.90;99.90
52439;DHT22;38359;53.150;6.504;2023-04-15T03:25:26;5.80;99.90
52439;DHT22;38359;53.150;6.504;2023-04-15T03:35:52;5.70;99.90
52439;DHT22;38359;53.150;6.504;2023-04-15T03:46:18;5.70;99.90
52439;DHT22;38359;53.150;6.504;2023-04-15T03:56:44;5.50;99.90
52439;DHT22;38359;53.150;6.504;2023-04-15T04:07:15;5.50;99.90
52439;DHT22;38359;53.150;6.504;2023-04-15T04:17:41;5.50;99.90
52439;DHT22;38359;53.150;6.504;2023-04-15T04:28:06;5.20;99.90
52439;DHT22;38359;53.150;6.504;2023-04-15T04:38:32;5.20;99.90
52439;DHT22;38359;53.150;6.504;2023-04-15T04:48:58;5.30;99.90
52439;DHT22;38359;53.150;6.504;2023-04-15T04:59:24;5.30;99.90
52439;DHT22;38359;53.150;6.504;2023-04-15T05:09:50;5.20;99.90
52439;DHT22;38359;53.150;6.504;2023-04-15T05:20:15;5.20;99.90
52439;DHT22;38359;53.150;6.504;2023-04-15T05:30:41;5.40;99.90
52439;DHT22;38359;53.150;6.504;2023-04-15T05:41:08;5.70;99.90
52439;DHT22;38359;53.150;6.504;2023-04-15T05:51:33;5.90;99.90
52439;DHT22;38359;53.150;6.504;2023-04-15T06:02:00;6.00;99.90
52439;DHT22;38359;53.150;6.504;2023-04-15T06:12:26;6.30;99.90
52439;DHT22;38359;53.150;6.504;2023-04-15T06:22:53;6.70;99.90
52439;DHT22;38359;53.150;6.504;2023-04-15T06:33:18;7.20;99.90
52439;DHT22;38359;53.150;6.504;2023-04-15T06:43:44;8.60;99.90
52439;DHT22;38359;53.150;6.504;2023-04-15T06:54:10;8.40;99.90
52439;DHT22;38359;53.150;6.504;2023-04-15T07:04:36;8.80;99.90
52439;DHT22;38359;53.150;6.504;2023-04-15T07:15:02;9.00;99.90
52439;DHT22;38359;53.150;6.504;2023-04-15T07:25:28;9.00;99.90
52439;DHT22;38359;53.150;6.504;2023-04-15T07:35:54;9.10;99.90
52439;DHT22;38359;53.150;6.504;2023-04-15T07:46:20;9.30;99.90
52439;DHT22;38359;53.150;6.504;2023-04-15T07:56:48;9.40;99.90
52439;DHT22;38359;53.150;6.504;2023-04-15T08:07:14;9.40;99.90
52439;DHT22;38359;53.150;6.504;2023-04-15T08:17:40;9.50;99.90
52439;DHT22;38359;53.150;6.504;2023-04-15T08:28:07;9.60;99.90
52439;DHT22;38359;53.150;6.504;2023-04-15T08:38:34;9.80;99.90
52439;DHT22;38359;53.150;6.504;2023-04-15T08:49:03;9.50;99.90
52439;DHT22;38359;53.150;6.504;2023-04-15T08:59:29;9.50;99.90
52439;DHT22;38359;53.150;6.504;2023-04-15T09:09:56;9.60;99.90
52439;DHT22;38359;53.150;6.504;2023-04-15T09:20:22;9.50;99.90
52439;DHT22;38359;53.150;6.504;2023-04-15T09:30:51;9.60;99.90
52439;DHT22;38359;53.150;6.504;2023-04-15T09:41:20;9.60;99.90
52439;DHT22;38359;53.150;6.504;2023-04-15T09:51:45;9.50;99.90
52439;DHT22;38359;53.150;6.504;2023-04-15T10:02:12;9.80;99.90
52439;DHT22;38359;53.150;6.504;2023-04-15T10:12:40;10.10;99.90
52439;DHT22;38359;53.150;6.504;2023-04-15T10:23:07;9.90;99.90
52439;DHT22;38359;53.150;6.504;2023-04-15T10:33:34;10.30;99.90
52439;DHT22;38359;53.150;6.504;2023-04-15T10:44:02;10.10;99.90
52439;DHT22;38359;53.150;6.504;2023-04-15T10:54:31;10.00;99.90
52439;DHT22;38359;53.150;6.504;2023-04-15T11:04:58;9.90;99.90
52439;DHT22;38359;53.150;6.504;2023-04-15T11:15:37;9.90;99.90
52439;DHT22;38359;53.150;6.504;2023-04-15T11:26:07;10.10;99.90
52439;DHT22;38359;53.150;6.504;2023-04-15T11:36:34;10.30;99.90
52439;DHT22;38359;53.150;6.504;2023-04-15T11:46:59;10.60;99.90
52439;DHT22;38359;53.150;6.504;2023-04-15T11:57:30;10.90;99.90
52439;DHT22;38359;53.150;6.504;2023-04-15T12:07:57;10.40;99.90
52439;DHT22;38359;53.150;6.504;2023-04-15T12:18:24;10.10;99.90
52439;DHT22;38359;53.150;6.504;2023-04-15T12:28:53;10.50;99.90
52439;DHT22;38359;53.150;6.504;2023-04-15T12:39:28;10.30;99.90
52439;DHT22;38359;53.150;6.504;2023-04-15T12:49:55;10.00;99.90
52439;DHT22;38359;53.150;6.504;2023-04-15T13:00:24;10.30;99.90
52439;DHT22;38359;53.150;6.504;2023-04-15T13:10:50;10.40;99.90
52439;DHT22;38359;53.150;6.504;2023-04-15T13:21:15;10.30;99.90
52439;DHT22;38359;53.150;6.504;2023-04-15T13:31:42;10.20;99.90
52439;DHT22;38359;53.150;6.504;2023-04-15T13:42:08;9.90;99.90
52439;DHT22;38359;53.150;6.504;2023-04-15T13:52:34;9.80;99.90
52439;DHT22;38359;53.150;6.504;2023-04-15T14:03:00;10.00;99.90
52439;DHT22;38359;53.150;6.504;2023-04-15T14:13:26;9.80;99.90
52439;DHT22;38359;53.150;6.504;2023-04-15T14:23:52;9.90;99.90
52439;DHT22;38359;53.150;6.504;2023-04-15T14:34:18;9.70;99.90
52439;DHT22;38359;53.150;6.504;2023-04-15T14:44:44;9.70;99.90
52439;DHT22;38359;53.150;6.504;2023-04-15T14:55:11;9.60;99.90
52439;DHT22;38359;53.150;6.504;2023-04-15T15:05:40;9.40;99.90
52439;DHT22;38359;53.150;6.504;2023-04-15T15:16:07;9.70;99.90
52439;DHT22;38359;53.150;6.504;2023-04-15T15:26:33;9.50;99.90
52439;DHT22;38359;53.150;6.504;2023-04-15T15:36:59;9.40;99.90
52439;DHT22;38359;53.150;6.504;2023-04-15T15:47:25;9.30;99.90
52439;DHT22;38359;53.150;6.504;2023-04-15T15:57:51;9.20;99.90
52439;DHT22;38359;53.150;6.504;2023-04-15T16:08:17;9.20;99.90
52439;DHT22;38359;53.150;6.504;2023-04-15T16:18:44;9.20;99.90
52439;DHT22;38359;53.150;6.504;2023-04-15T16:29:10;9.20;99.90
52439;DHT22;38359;53.150;6.504;2023-04-15T16:39:35;9.20;99.90
52439;DHT22;38359;53.150;6.504;2023-04-15T16:50:01;9.30;99.90
52439;DHT22;38359;53.150;6.504;2023-04-15T17:00:27;9.60;99.90
52439;DHT22;38359;53.150;6.504;2023-04-15T17:10:54;9.10;99.90
52439;DHT22;38359;53.150;6.504;2023-04-15T17:21:19;9.10;99.90
52439;DHT22;38359;53.150;6.504;2023-04-15T17:31:45;9.10;99.90
52439;DHT22;38359;53.150;6.504;2023-04-15T17:42:12;9.30;99.90
52439;DHT22;38359;53.150;6.504;2023-04-15T17:52:38;9.10;99.90
52439;DHT22;38359;53.150;6.504;2023-04-15T18:03:03;9.30;99.90
52439;DHT22;38359;53.150;6.504;2023-04-15T18:13:29;9.40;99.90
52439;DHT22;38359;53.150;6.504;2023-04-15T18:23:55;9.30;99.90
52439;DHT22;38359;53.150;6.504;2023-04-15T18:34:21;9.30;99.90
52439;DHT22;38359;53.150;6.504;2023-04-15T18:44:47;9.30;99.90
52439;DHT22;38359;53.150;6.504;2023-04-15T18:55:13;9.40;99.90
52439;DHT22;38359;53.150;6.504;2023-04-15T19:05:39;9.60;99.90
52439;DHT22;38359;53.150;6.504;2023-04-15T19:16:05;9.60;99.90
52439;DHT22;38359;53.150;6.504;2023-04-15T19:26:30;9.70;99.90
52439;DHT22;38359;53.150;6.504;2023-04-15T19:36:56;9.70;99.90
52439;DHT22;38359;53.150;6.504;2023-04-15T19:47:22;9.60;99.90
52439;DHT22;38359;53.150;6.504;2023-04-15T19:57:48;9.70;99.90
52439;DHT22;38359;53.150;6.504;2023-04-15T20:08:14;9.70;99.90
52439;DHT22;38359;53.150;6.504;2023-04-15T20:18:39;10.00;99.90
52439;DHT22;38359;53.150;6.504;2023-04-15T20:29:05;9.80;99.90
52439;DHT22;38359;53.150;6.504;2023-04-15T20:39:33;10.00;99.90
52439;DHT22;38359;53.150;6.504;2023-04-15T20:49:59;10.10;99.90
52439;DHT22;38359;53.150;6.504;2023-04-15T21:00:24;9.90;99.90
52439;DHT22;38359;53.150;6.504;2023-04-15T21:10:50;10.10;99.90
52439;DHT22;38359;53.150;6.504;2023-04-15T21:21:16;10.00;99.90
52439;DHT22;38359;53.150;6.504;2023-04-15T21:31:42;10.20;99.90
52439;DHT22;38359;53.150;6.504;2023-04-15T21:42:07;10.20;99.90
52439;DHT22;38359;53.150;6.504;2023-04-15T21:52:33;10.20;99.90
52439;DHT22;38359;53.150;6.504;2023-04-15T22:02:59;10.10;99.90
52439;DHT22;38359;53.150;6.504;2023-04-15T22:13:25;10.20;99.90
52439;DHT22;38359;53.150;6.504;2023-04-15T22:23:51;10.10;99.90
52439;DHT22;38359;53.150;6.504;2023-04-15T22:34:17;10.10;99.90
52439;DHT22;38359;53.150;6.504;2023-04-15T22:44:45;10.20;99.90
52439;DHT22;38359;53.150;6.504;2023-04-15T22:55:11;10.40;99.90
52439;DHT22;38359;53.150;6.504;2023-04-15T23:05:37;10.30;99.90
52439;DHT22;38359;53.150;6.504;2023-04-15T23:16:04;10.30;99.90
52439;DHT22;38359;53.150;6.504;2023-04-15T23:26:30;10.20;99.90
52439;DHT22;38359;53.150;6.504;2023-04-15T23:36:56;10.50;99.90
52439;DHT22;38359;53.150;6.504;2023-04-15T23:47:22;10.30;99.90
52439;DHT22;38359;53.150;6.504;2023-04-15T23:57:47;10.30;99.90
